createdAt,value
2023-07-01T00:01:17.525Z,26.60
2023-07-01T00:03:46.245Z,26.70
2023-07-01T00:06:15.966Z,26.70
2023-07-01T00:08:44.658Z,26.70
2023-07-01T00:11:13.426Z,26.70
2023-07-01T00:13:42.056Z,26.80
2023-07-01T00:16:11.158Z,26.70
2023-07-01T00:18:39.893Z,26.80
2023-07-01T00:21:09.045Z,26.80
2023-07-01T00:23:37.823Z,26.80
2023-07-01T00:26:06.589Z,26.80
2023-07-01T00:28:35.236Z,26.90
2023-07-01T00:31:04.054Z,26.90
2023-07-01T00:33:32.766Z,26.90
2023-07-01T00:36:01.404Z,27.00
2023-07-01T00:38:30.037Z,27.10
2023-07-01T00:40:58.695Z,27.20
2023-07-01T00:43:27.312Z,27.30
2023-07-01T00:45:56.202Z,27.40
2023-07-01T00:48:30.327Z,27.50
2023-07-01T00:50:59.202Z,27.60
2023-07-01T00:53:28.333Z,27.70
2023-07-01T00:55:57.044Z,27.70
2023-07-01T00:58:25.869Z,27.80
2023-07-01T01:00:58.330Z,27.90
2023-07-01T01:03:41.834Z,27.90
2023-07-01T01:06:18.947Z,28.00
2023-07-01T01:09:12.556Z,28.00
2023-07-01T01:11:46.740Z,28.10
2023-07-01T01:14:17.571Z,28.20
2023-07-01T01:16:48.376Z,28.30
2023-07-01T01:19:37.673Z,28.40
2023-07-01T01:22:14.695Z,28.40
2023-07-01T01:24:46.593Z,28.50
2023-07-01T01:27:21.076Z,28.60
2023-07-01T01:29:50.026Z,28.60
2023-07-01T01:32:18.744Z,28.60
2023-07-01T01:34:48.179Z,28.70
2023-07-01T01:37:27.298Z,28.80
2023-07-01T01:40:11.700Z,28.80
2023-07-01T01:42:45.615Z,28.90
2023-07-01T01:45:21.166Z,28.90
2023-07-01T01:47:51.851Z,29.00
2023-07-01T01:50:23.293Z,29.10
2023-07-01T01:52:52.911Z,29.20
2023-07-01T01:55:22.718Z,29.20
2023-07-01T01:57:51.584Z,29.30
2023-07-01T02:00:21.134Z,29.30
2023-07-01T02:02:49.874Z,29.30
2023-07-01T02:05:18.823Z,29.30
2023-07-01T02:07:47.638Z,29.40
2023-07-01T02:10:16.416Z,29.40
2023-07-01T02:12:45.295Z,29.40
2023-07-01T02:15:14.012Z,29.50
2023-07-01T02:17:42.830Z,29.50
2023-07-01T02:20:12.050Z,29.60
2023-07-01T02:22:40.759Z,29.70
2023-07-01T02:25:09.877Z,29.70
2023-07-01T02:27:38.749Z,29.80
2023-07-01T02:30:08.496Z,29.90
2023-07-01T02:32:37.204Z,29.90
2023-07-01T02:35:06.254Z,30.00
2023-07-01T02:37:34.975Z,30.00
2023-07-01T02:40:06.635Z,30.00
2023-07-01T02:42:35.354Z,30.10
2023-07-01T02:45:06.962Z,30.10
2023-07-01T02:47:35.778Z,30.20
2023-07-01T02:50:06.458Z,30.20
2023-07-01T02:52:35.263Z,30.20
2023-07-01T02:55:04.693Z,30.20
2023-07-01T02:57:33.331Z,30.30
2023-07-01T03:00:03.046Z,30.40
2023-07-01T03:02:31.774Z,30.50
2023-07-01T03:05:00.716Z,30.50
2023-07-01T03:07:29.394Z,30.60
2023-07-01T03:09:58.020Z,30.60
2023-07-01T03:12:26.636Z,30.70
2023-07-01T03:14:55.268Z,30.70
2023-07-01T03:17:26.609Z,30.70
2023-07-01T03:19:55.315Z,30.80
2023-07-01T03:22:23.969Z,30.80
2023-07-01T03:24:52.625Z,30.80
2023-07-01T03:27:21.252Z,30.90
2023-07-01T03:29:49.862Z,30.90
2023-07-01T03:32:18.526Z,31.00
2023-07-01T03:34:47.196Z,31.10
2023-07-01T03:37:15.818Z,31.10
2023-07-01T03:39:44.474Z,31.20
2023-07-01T03:42:13.100Z,31.20
2023-07-01T03:44:41.739Z,31.20
2023-07-01T03:47:15.009Z,31.20
2023-07-01T03:49:43.612Z,31.20
2023-07-01T03:52:12.215Z,31.40
2023-07-01T03:54:40.937Z,31.40
2023-07-01T03:57:10.006Z,31.50
2023-07-01T03:59:38.626Z,31.40
2023-07-01T04:02:07.847Z,31.50
2023-07-01T04:04:36.736Z,31.50
2023-07-01T04:07:07.201Z,31.50
2023-07-01T04:09:35.862Z,31.50
2023-07-01T04:12:05.019Z,31.60
2023-07-01T04:14:33.726Z,31.70
2023-07-01T04:17:02.426Z,31.70
2023-07-01T04:19:31.319Z,31.80
2023-07-01T04:21:59.962Z,31.90
2023-07-01T04:24:28.598Z,31.90
2023-07-01T04:26:57.856Z,32.00
2023-07-01T04:29:26.495Z,32.10
2023-07-01T04:31:55.119Z,32.10
2023-07-01T04:34:23.833Z,32.20
2023-07-01T04:36:52.517Z,32.20
2023-07-01T04:39:25.990Z,32.30
2023-07-01T04:41:54.646Z,32.30
2023-07-01T04:44:26.148Z,32.30
2023-07-01T04:46:54.822Z,32.30
2023-07-01T04:49:23.576Z,32.40
2023-07-01T04:51:52.462Z,32.40
2023-07-01T04:54:21.254Z,32.50
2023-07-01T04:56:49.867Z,32.50
2023-07-01T04:59:18.577Z,32.50
2023-07-01T05:01:47.279Z,32.60
2023-07-01T05:04:16.853Z,32.60
2023-07-01T05:06:45.662Z,32.70
2023-07-01T05:09:14.382Z,32.70
2023-07-01T05:11:43.039Z,32.70
2023-07-01T05:14:11.683Z,32.70
2023-07-01T05:16:40.955Z,32.80
2023-07-01T05:19:09.678Z,32.90
2023-07-01T05:21:38.937Z,33.00
2023-07-01T05:24:10.330Z,33.00
2023-07-01T05:26:39.022Z,33.10
2023-07-01T05:29:07.651Z,33.10
2023-07-01T05:31:36.315Z,33.10
2023-07-01T05:34:05.781Z,33.20
2023-07-01T05:36:34.664Z,33.20
2023-07-01T05:39:03.464Z,33.20
2023-07-01T05:41:32.406Z,33.20
2023-07-01T05:44:03.674Z,33.20
2023-07-01T05:46:33.562Z,33.30
2023-07-01T05:49:02.186Z,33.30
2023-07-01T05:51:30.805Z,33.40
2023-07-01T05:53:59.932Z,33.40
2023-07-01T05:56:28.881Z,33.50
2023-07-01T05:58:57.520Z,33.50
2023-07-01T06:01:26.268Z,33.40
2023-07-01T06:03:54.987Z,33.40
2023-07-01T06:06:23.805Z,33.30
2023-07-01T06:08:52.544Z,33.20
2023-07-01T06:11:23.705Z,33.30
2023-07-01T06:13:52.631Z,33.30
2023-07-01T06:16:21.441Z,33.40
2023-07-01T06:18:50.255Z,33.40
2023-07-01T06:21:18.911Z,33.40
2023-07-01T06:23:47.626Z,33.40
2023-07-01T06:26:17.444Z,33.40
2023-07-01T06:28:46.496Z,33.40
2023-07-01T06:31:15.197Z,33.40
